Time;durP1;ratioP1;P1;durP2;ratioP2;P2;SDS_P1;SDS_P2;PMS_P1;PMS_P2;Temp;Humidity;BMP_temperature;BMP_pressure;BME280_temperature;BME280_humidity;BME280_pressure;Samples;Min_cycle;Max_cycle;Signal;HPM_P1;HPM_P2
2023/07/29 00:01:00;;;;;;;;;;;;;;;22.38;27.83;97729.38;5005427;28;913;-80
2023/07/29 00:03:25;;;;;;;;;;;;;;;22.49;27.72;97726.97;4991431;28;1344;-81
2023/07/29 00:05:51;;;;;;;;;;;;;;;22.39;27.82;97734.59;5024868;28;1271;-80
2023/07/29 00:08:16;;;;;;;;;;;;;;;22.24;27.74;97725.78;5038844;28;1396;-80
2023/07/29 00:10:42;;;;;;;;;;;;;;;22.30;27.85;97723.94;5017191;28;1404;-80
2023/07/29 00:13:07;;;;;;;;;;;;;;;22.20;27.94;97713.75;5000678;28;953;-80
2023/07/29 00:15:33;;;;;;;;;;;;;;;22.50;27.59;97728.56;5000774;28;889;-79
2023/07/29 00:17:59;;;;;;;;;;;;;;;22.24;28.28;97717.28;5000046;28;1898;-80
2023/07/29 00:20:24;;;;;;;;;;;;;;;22.16;28.20;97715.91;5000151;28;1433;-80
2023/07/29 00:22:52;;;;;;;;;;;;;;;22.30;28.06;97715.44;5012745;28;1317;-80
2023/07/29 00:25:18;;;;;;;;;;;;;;;22.30;28.00;97715.44;5039562;28;970;-80
2023/07/29 00:27:44;;;;;;;;;;;;;;;22.33;27.97;97714.53;5039352;28;830;-80
2023/07/29 00:30:09;;;;;;;;;;;;;;;22.25;28.10;97713.19;5005868;28;1386;-80
2023/07/29 00:32:35;;;;;;;;;;;;;;;22.08;28.28;97712.50;5036503;28;1583;-80
2023/07/29 00:35:01;;;;;;;;;;;;;;;22.07;28.34;97707.28;5039495;28;818;-80
2023/07/29 00:37:27;;;;;;;;;;;;;;;22.43;27.80;97706.09;5056306;28;1980;-80
2023/07/29 00:39:53;;;;;;;;;;;;;;;22.44;27.90;97696.38;5061709;28;802;-80
2023/07/29 00:42:18;;;;;;;;;;;;;;;22.11;27.92;97696.66;5028176;28;1189;-80
2023/07/29 00:44:44;;;;;;;;;;;;;;;22.07;28.19;97684.63;5043231;28;1265;-80
2023/07/29 00:47:09;;;;;;;;;;;;;;;22.30;27.67;97687.09;5043792;28;1334;-79
2023/07/29 00:49:35;;;;;;;;;;;;;;;22.05;28.36;97687.13;5042719;28;1349;-80
2023/07/29 00:52:02;;;;;;;;;;;;;;;22.20;28.07;97691.09;5044480;28;1246;-80
2023/07/29 00:54:27;;;;;;;;;;;;;;;21.88;28.38;97685.69;5041839;28;1213;-79
2023/07/29 00:56:53;;;;;;;;;;;;;;;22.00;28.15;97676.34;5026588;28;1910;-80
2023/07/29 00:59:18;;;;;;;;;;;;;;;22.28;27.81;97689.63;5043432;28;1026;-80
2023/07/29 01:01:44;;;;;;;;;;;;;;;22.22;27.94;97680.06;5043690;28;1384;-79
2023/07/29 01:04:09;;;;;;;;;;;;;;;22.21;27.91;97681.34;5026451;28;1217;-80
2023/07/29 01:06:41;;;;;;;;;;;;;;;22.30;27.70;97689.94;5042596;28;1521;-79
2023/07/29 01:09:09;;;;;;;;;;;;;;;22.39;28.06;97682.78;5026460;28;1274;-80
2023/07/29 01:11:40;;;;;;;;;;;;;;;22.43;27.71;97681.38;5027768;28;1301;-80
2023/07/29 01:14:21;;;;;;;;;;;;;;;22.21;28.07;97683.38;5043055;28;1155;-81
2023/07/29 01:16:50;;;;;;;;;;;;;;;22.25;27.89;97684.84;5043935;28;1906;-80
2023/07/29 01:19:36;;;;;;;;;;;;;;;22.06;28.00;97674.53;5043461;28;1054;-81
2023/07/29 01:22:01;;;;;;;;;;;;;;;22.27;27.95;97673.84;5004461;28;1562;-81
2023/07/29 01:24:29;;;;;;;;;;;;;;;22.08;28.33;97663.56;4987844;28;1143;-80
2023/07/29 01:26:54;;;;;;;;;;;;;;;22.03;28.25;97673.41;5004699;28;1076;-80
2023/07/29 01:29:20;;;;;;;;;;;;;;;22.12;28.26;97663.44;5003650;28;1225;-81
2023/07/29 01:31:46;;;;;;;;;;;;;;;22.32;27.84;97670.41;5005586;28;1173;-81
2023/07/29 01:34:15;;;;;;;;;;;;;;;22.14;28.19;97670.25;5003699;28;1265;-80
2023/07/29 01:36:41;;;;;;;;;;;;;;;22.39;27.92;97665.78;5004650;28;1984;-80
2023/07/29 01:39:08;;;;;;;;;;;;;;;22.20;28.01;97665.59;5020180;28;984;-81
2023/07/29 01:41:34;;;;;;;;;;;;;;;22.25;28.09;97667.84;5005328;28;764;-81
2023/07/29 01:43:59;;;;;;;;;;;;;;;22.31;28.07;97666.00;5006209;28;1156;-80
2023/07/29 01:46:26;;;;;;;;;;;;;;;22.42;27.87;97667.66;5008770;28;1199;-80
2023/07/29 01:48:51;;;;;;;;;;;;;;;22.12;28.39;97667.06;5007646;28;1097;-80
2023/07/29 01:51:17;;;;;;;;;;;;;;;22.09;28.33;97665.91;5020969;28;1421;-81
2023/07/29 01:53:42;;;;;;;;;;;;;;;22.12;28.12;97669.91;5003610;28;1116;-80
2023/07/29 01:56:08;;;;;;;;;;;;;;;22.32;28.04;97667.59;4989614;28;1072;-81
2023/07/29 01:58:36;;;;;;;;;;;;;;;22.22;28.23;97665.91;4983841;28;1906;-81
2023/07/29 02:01:01;;;;;;;;;;;;;;;22.28;28.09;97669.78;4997298;28;1391;-80
2023/07/29 02:03:28;;;;;;;;;;;;;;;22.59;27.42;97669.09;5011260;28;1187;-80
2023/07/29 02:05:53;;;;;;;;;;;;;;;22.17;28.32;97666.50;5036668;28;1365;-81
2023/07/29 02:08:19;;;;;;;;;;;;;;;22.33;27.90;97663.53;5030780;28;1413;-81
2023/07/29 02:10:45;;;;;;;;;;;;;;;22.43;28.00;97675.72;5032496;28;1155;-81
2023/07/29 02:13:11;;;;;;;;;;;;;;;22.31;28.22;97666.00;5030770;28;1273;-80
2023/07/29 02:15:37;;;;;;;;;;;;;;;22.40;27.70;97673.03;5032180;28;1137;-81
2023/07/29 02:18:03;;;;;;;;;;;;;;;22.27;27.90;97661.72;5047725;28;1914;-80
2023/07/29 02:20:29;;;;;;;;;;;;;;;22.37;27.82;97666.22;5027538;28;1480;-81
2023/07/29 02:22:54;;;;;;;;;;;;;;;22.34;28.04;97658.63;5001189;28;1487;-80
2023/07/29 02:25:20;;;;;;;;;;;;;;;22.34;27.85;97659.44;5023668;28;1147;-80
2023/07/29 02:27:46;;;;;;;;;;;;;;;22.04;28.38;97668.53;5008088;28;1238;-81
2023/07/29 02:30:12;;;;;;;;;;;;;;;22.38;28.13;97658.50;5023392;28;1146;-80
2023/07/29 02:32:38;;;;;;;;;;;;;;;22.05;28.13;97670.13;5008168;28;871;-80
2023/07/29 02:35:04;;;;;;;;;;;;;;;22.19;28.35;97669.69;4948136;29;1195;-81
2023/07/29 02:37:30;;;;;;;;;;;;;;;22.18;28.06;97673.75;4964599;28;1970;-80
2023/07/29 02:39:55;;;;;;;;;;;;;;;22.60;27.54;97665.00;4948814;29;862;-81
2023/07/29 02:42:21;;;;;;;;;;;;;;;22.21;28.20;97672.84;4966275;28;1136;-80
2023/07/29 02:44:47;;;;;;;;;;;;;;;22.22;27.88;97663.06;4964571;28;1151;-81
2023/07/29 02:47:12;;;;;;;;;;;;;;;22.21;28.22;97681.34;4949785;28;834;-80
2023/07/29 02:49:38;;;;;;;;;;;;;;;22.29;27.78;97673.41;4964448;29;1064;-80
2023/07/29 02:52:03;;;;;;;;;;;;;;;22.24;27.94;97671.94;4964941;28;1360;-80
2023/07/29 02:54:29;;;;;;;;;;;;;;;22.03;28.35;97684.75;4930064;28;1176;-81
2023/07/29 02:56:55;;;;;;;;;;;;;;;22.24;28.08;97671.94;4968329;28;1903;-80
2023/07/29 02:59:21;;;;;;;;;;;;;;;22.49;27.61;97678.78;4967594;28;1458;-81
2023/07/29 03:01:47;;;;;;;;;;;;;;;22.53;27.29;97676.59;4969720;28;1376;-81
2023/07/29 03:04:13;;;;;;;;;;;;;;;22.25;27.94;97673.50;5002785;28;865;-80
2023/07/29 03:06:38;;;;;;;;;;;;;;;22.20;27.85;97679.75;5000867;28;1268;-81
2023/07/29 03:09:04;;;;;;;;;;;;;;;22.13;28.10;97674.34;5024576;28;1695;-81
2023/07/29 03:11:30;;;;;;;;;;;;;;;22.32;27.80;97676.09;5012902;28;1337;-81
2023/07/29 03:13:56;;;;;;;;;;;;;;;22.30;27.98;97674.97;5008902;28;1046;-81
2023/07/29 03:16:22;;;;;;;;;;;;;;;22.28;27.95;97675.44;5027249;28;1186;-81
2023/07/29 03:18:52;;;;;;;;;;;;;;;22.48;27.52;97675.13;5026645;28;1903;-81
2023/07/29 03:21:18;;;;;;;;;;;;;;;22.33;27.80;97677.69;5043709;28;783;-81
2023/07/29 03:23:44;;;;;;;;;;;;;;;22.24;27.90;97671.94;5009155;28;1344;-81
2023/07/29 03:26:10;;;;;;;;;;;;;;;22.26;27.68;97669.41;5026235;28;1520;-80
2023/07/29 03:28:39;;;;;;;;;;;;;;;22.26;27.82;97685.63;5025272;28;1196;-81
2023/07/29 03:31:05;;;;;;;;;;;;;;;22.05;28.10;97664.44;5043835;28;1121;-80
2023/07/29 03:33:32;;;;;;;;;;;;;;;22.36;27.58;97678.81;5024941;28;1246;-80
2023/07/29 03:35:58;;;;;;;;;;;;;;;22.20;28.07;97685.41;5044476;28;841;-80
2023/07/29 03:38:23;;;;;;;;;;;;;;;22.08;28.13;97686.22;5041568;28;1906;-80
2023/07/29 03:40:49;;;;;;;;;;;;;;;22.37;27.80;97680.38;5038272;28;1320;-80
2023/07/29 03:43:14;;;;;;;;;;;;;;;22.18;28.11;97678.63;5031322;28;1477;-80
2023/07/29 03:45:40;;;;;;;;;;;;;;;22.29;27.85;97688.34;5027439;28;1342;-80
2023/07/29 03:48:06;;;;;;;;;;;;;;;22.23;27.76;97686.56;5025168;28;1129;-80
2023/07/29 03:50:33;;;;;;;;;;;;;;;22.07;28.25;97685.44;5029371;28;1389;-80
2023/07/29 03:52:59;;;;;;;;;;;;;;;22.15;27.90;97691.66;5029781;28;1211;-80
2023/07/29 03:55:24;;;;;;;;;;;;;;;22.33;27.58;97686.19;5008703;28;1120;-80
2023/07/29 03:57:50;;;;;;;;;;;;;;;22.24;27.80;97682.47;5025005;28;1983;-80
2023/07/29 04:00:15;;;;;;;;;;;;;;;22.29;27.83;97679.84;5041073;28;966;-80
2023/07/29 04:02:41;;;;;;;;;;;;;;;22.45;27.63;97680.94;5041356;28;765;-80
2023/07/29 04:05:10;;;;;;;;;;;;;;;22.22;28.02;97691.41;5007531;28;1238;-80
2023/07/29 04:07:36;;;;;;;;;;;;;;;22.33;27.69;97686.19;5008630;28;1214;-81
2023/07/29 04:10:02;;;;;;;;;;;;;;;22.38;28.10;97686.84;5040755;28;1195;-82
2023/07/29 04:12:28;;;;;;;;;;;;;;;22.42;27.76;97688.31;5025266;28;1342;-81
2023/07/29 04:14:54;;;;;;;;;;;;;;;22.17;28.18;97697.66;5040712;28;1154;-81
2023/07/29 04:17:19;;;;;;;;;;;;;;;22.32;27.90;97697.97;5024631;28;1957;-81
2023/07/29 04:19:45;;;;;;;;;;;;;;;22.15;28.30;97697.34;5023502;28;775;-81
2023/07/29 04:22:11;;;;;;;;;;;;;;;22.24;28.31;97703.09;5040188;28;1072;-81
2023/07/29 04:24:37;;;;;;;;;;;;;;;22.29;28.15;97691.19;5039124;28;814;-81
2023/07/29 04:27:03;;;;;;;;;;;;;;;22.32;28.24;97695.13;5040173;28;886;-81
2023/07/29 04:29:29;;;;;;;;;;;;;;;22.45;27.90;97692.28;5059428;28;1299;-82
2023/07/29 04:31:54;;;;;;;;;;;;;;;22.11;28.65;97696.66;5043879;28;1285;-82
2023/07/29 04:34:20;;;;;;;;;;;;;;;22.27;28.39;97705.00;5058828;28;793;-82
2023/07/29 04:36:46;;;;;;;;;;;;;;;22.47;28.31;97699.06;5043991;28;1971;-82
2023/07/29 04:39:12;;;;;;;;;;;;;;;22.39;28.32;97705.47;5042447;28;1219;-82
2023/07/29 04:41:37;;;;;;;;;;;;;;;22.30;28.45;97712.59;5043755;28;1112;-82
2023/07/29 04:44:03;;;;;;;;;;;;;;;22.15;28.44;97720.00;5038344;28;1312;-82
2023/07/29 04:46:29;;;;;;;;;;;;;;;22.19;28.64;97719.91;5006911;28;1108;-82
2023/07/29 04:48:54;;;;;;;;;;;;;;;22.19;28.56;97717.84;5005719;28;1183;-81
2023/07/29 04:51:20;;;;;;;;;;;;;;;22.41;28.02;97722.78;5007181;28;1205;-82
2023/07/29 04:53:46;;;;;;;;;;;;;;;22.36;28.25;97718.50;4989516;28;1131;-82
2023/07/29 04:56:12;;;;;;;;;;;;;;;22.30;28.41;97726.00;5007631;28;1149;-82
2023/07/29 04:58:37;;;;;;;;;;;;;;;22.25;28.37;97724.53;5005465;28;2003;-82
2023/07/29 05:01:03;;;;;;;;;;;;;;;22.59;27.78;97725.81;4993114;28;1348;-82
2023/07/29 05:03:29;;;;;;;;;;;;;;;22.40;28.31;97727.66;5018139;28;952;-82
2023/07/29 05:05:56;;;;;;;;;;;;;;;22.42;28.38;97727.22;5020337;28;1208;-82
2023/07/29 05:08:21;;;;;;;;;;;;;;;22.30;28.36;97726.00;5018700;28;926;-82
2023/07/29 05:10:50;;;;;;;;;;;;;;;22.45;28.16;97720.63;5003594;28;1215;-81
2023/07/29 05:13:16;;;;;;;;;;;;;;;22.16;28.66;97727.25;5002537;28;1251;-82
2023/07/29 05:15:41;;;;;;;;;;;;;;;22.49;28.29;97724.16;5018148;28;913;-82
2023/07/29 05:18:07;;;;;;;;;;;;;;;22.60;28.28;97724.56;4983916;28;1914;-82
2023/07/29 05:20:32;;;;;;;;;;;;;;;22.45;28.44;97731.97;4987716;28;1097;-82
2023/07/29 05:22:58;;;;;;;;;;;;;;;22.24;28.73;97731.44;5022883;28;881;-82
2023/07/29 05:25:24;;;;;;;;;;;;;;;22.59;28.56;97722.97;5006841;28;1319;-82
2023/07/29 05:27:49;;;;;;;;;;;;;;;22.59;28.55;97726.59;5007040;28;1107;-82
2023/07/29 05:30:15;;;;;;;;;;;;;;;22.49;28.64;97732.66;5006489;28;1193;-82
2023/07/29 05:32:41;;;;;;;;;;;;;;;22.58;28.39;97729.88;5022726;28;1315;-82
2023/07/29 05:35:07;;;;;;;;;;;;;;;22.39;28.64;97734.59;5006273;28;853;-82
2023/07/29 05:37:33;;;;;;;;;;;;;;;22.18;29.27;97736.09;4991422;28;1914;-82
2023/07/29 05:39:58;;;;;;;;;;;;;;;22.60;28.70;97727.41;4967314;28;1112;-82
2023/07/29 05:42:24;;;;;;;;;;;;;;;22.44;28.53;97719.06;4968422;28;1120;-82
2023/07/29 05:44:50;;;;;;;;;;;;;;;22.56;28.52;97736.00;4984032;28;1241;-82
2023/07/29 05:47:18;;;;;;;;;;;;;;;22.58;28.25;97735.53;4969030;28;1112;-82
2023/07/29 05:49:44;;;;;;;;;;;;;;;22.35;28.84;97740.38;4966931;28;1220;-82
2023/07/29 05:52:10;;;;;;;;;;;;;;;22.33;28.94;97737.22;4984819;28;1093;-82
2023/07/29 05:54:35;;;;;;;;;;;;;;;22.42;28.63;97732.88;4998086;28;868;-82
2023/07/29 05:57:01;;;;;;;;;;;;;;;22.42;28.64;97736.50;5004373;28;1980;-82
2023/07/29 05:59:29;;;;;;;;;;;;;;;22.48;28.50;97733.88;4986095;28;1082;-82
2023/07/29 06:01:55;;;;;;;;;;;;;;;22.52;28.36;97743.06;4972044;28;1242;-82
2023/07/29 06:04:20;;;;;;;;;;;;;;;22.60;28.61;97738.75;4967179;28;1233;-82
2023/07/29 06:06:46;;;;;;;;;;;;;;;22.23;29.31;97732.69;4967729;28;1049;-82
2023/07/29 06:09:11;;;;;;;;;;;;;;;22.30;29.26;97726.00;4950863;28;1092;-82
2023/07/29 06:11:37;;;;;;;;;;;;;;;22.42;28.71;97739.34;5013748;28;899;-82
2023/07/29 06:14:03;;;;;;;;;;;;;;;22.09;29.29;97727.47;4992616;28;1263;-82
2023/07/29 06:16:28;;;;;;;;;;;;;;;22.31;28.95;97734.03;5009950;28;1235;-82
2023/07/29 06:18:54;;;;;;;;;;;;;;;22.66;28.59;97736.09;5024977;28;1988;-82
2023/07/29 06:21:20;;;;;;;;;;;;;;;22.55;29.08;97737.28;5009705;28;1269;-82
2023/07/29 06:23:45;;;;;;;;;;;;;;;22.34;29.18;97744.47;5008380;28;938;-82
2023/07/29 06:26:11;;;;;;;;;;;;;;;22.58;28.50;97744.06;4993721;28;1432;-82
2023/07/29 06:28:37;;;;;;;;;;;;;;;22.57;28.83;97745.31;5024012;28;1232;-82
2023/07/29 06:31:02;;;;;;;;;;;;;;;22.48;29.10;97739.53;4992757;28;909;-82
2023/07/29 06:33:28;;;;;;;;;;;;;;;22.32;29.44;97740.50;5007767;28;877;-82
2023/07/29 06:35:53;;;;;;;;;;;;;;;22.26;29.40;97740.28;5042178;28;920;-82
2023/07/29 06:38:21;;;;;;;;;;;;;;;22.15;29.35;97730.56;5028468;28;1915;-82
2023/07/29 06:40:50;;;;;;;;;;;;;;;22.30;29.39;97737.34;5047239;28;860;-82
2023/07/29 06:43:16;;;;;;;;;;;;;;;22.67;28.87;97744.16;5028328;28;1227;-83
2023/07/29 06:45:41;;;;;;;;;;;;;;;22.64;28.76;97745.09;5027651;28;1136;-82
2023/07/29 06:48:07;;;;;;;;;;;;;;;22.27;29.50;97738.22;5043851;28;1009;-82
2023/07/29 06:50:32;;;;;;;;;;;;;;;22.49;29.06;97744.00;5044665;28;1230;-81
2023/07/29 06:52:58;;;;;;;;;;;;;;;22.47;29.39;97743.63;5005087;28;1218;-82
2023/07/29 06:55:23;;;;;;;;;;;;;;;22.47;28.95;97746.47;4989195;28;1216;-82
2023/07/29 06:57:49;;;;;;;;;;;;;;;22.28;29.67;97751.97;4989038;28;1973;-82
2023/07/29 07:00:15;;;;;;;;;;;;;;;22.50;29.29;97748.41;5005075;28;1237;-82
2023/07/29 07:02:41;;;;;;;;;;;;;;;22.32;29.57;97746.94;4989908;28;1111;-82
2023/07/29 07:05:07;;;;;;;;;;;;;;;22.68;28.85;97745.72;4988532;28;1424;-82
2023/07/29 07:07:32;;;;;;;;;;;;;;;22.60;28.96;97750.09;5005827;28;1092;-83
2023/07/29 07:09:58;;;;;;;;;;;;;;;22.62;29.27;97753.25;5005109;28;878;-82
2023/07/29 07:12:24;;;;;;;;;;;;;;;22.41;29.28;97748.31;4989113;28;1109;-82
2023/07/29 07:14:49;;;;;;;;;;;;;;;22.62;29.26;97753.25;4987839;28;1174;-82
2023/07/29 07:17:15;;;;;;;;;;;;;;;22.60;28.94;97752.91;5005620;28;1902;-82
2023/07/29 07:19:40;;;;;;;;;;;;;;;22.63;28.96;97754.81;5004573;28;1159;-82
2023/07/29 07:22:06;;;;;;;;;;;;;;;22.29;29.65;97752.75;5005673;28;826;-82
2023/07/29 07:24:32;;;;;;;;;;;;;;;22.62;29.44;97756.06;5050873;28;983;-82
2023/07/29 07:26:58;;;;;;;;;;;;;;;22.64;29.46;97753.59;5063715;28;757;-82
2023/07/29 07:29:23;;;;;;;;;;;;;;;22.85;28.94;97744.31;5028753;28;1173;-82
2023/07/29 07:31:50;;;;;;;;;;;;;;;22.75;29.29;97761.72;5062407;28;1130;-82
2023/07/29 07:34:15;;;;;;;;;;;;;;;22.56;29.70;97755.06;5044419;28;1134;-82
2023/07/29 07:36:41;;;;;;;;;;;;;;;22.79;29.29;97756.69;5024911;28;1098;-82
2023/07/29 07:39:06;;;;;;;;;;;;;;;22.52;29.37;97754.41;5023473;28;1918;-82
2023/07/29 07:41:32;;;;;;;;;;;;;;;22.86;29.08;97745.91;5024708;28;1044;-82
2023/07/29 07:43:57;;;;;;;;;;;;;;;22.41;29.71;97749.09;5023721;28;994;-82
2023/07/29 07:46:23;;;;;;;;;;;;;;;22.68;29.51;97754.22;5025085;28;1183;-82
2023/07/29 07:48:49;;;;;;;;;;;;;;;22.74;29.36;97741.06;5023609;28;857;-82
2023/07/29 07:51:14;;;;;;;;;;;;;;;22.67;29.36;97754.69;5041072;28;1051;-82
2023/07/29 07:53:40;;;;;;;;;;;;;;;22.56;29.62;97744.53;5039557;28;907;-82
2023/07/29 07:56:06;;;;;;;;;;;;;;;22.79;29.38;97746.13;5042047;28;962;-82
2023/07/29 07:58:32;;;;;;;;;;;;;;;22.76;29.45;97747.06;5006161;28;1975;-82
2023/07/29 08:01:01;;;;;;;;;;;;;;;22.71;29.30;97744.81;5024452;28;1197;-82
2023/07/29 08:03:26;;;;;;;;;;;;;;;22.71;29.63;97744.81;5022658;28;906;-82
2023/07/29 08:05:52;;;;;;;;;;;;;;;22.82;29.22;97750.91;5024316;28;1078;-82
2023/07/29 08:08:17;;;;;;;;;;;;;;;22.71;29.36;97744.81;5022052;28;1190;-82
2023/07/29 08:10:43;;;;;;;;;;;;;;;22.72;29.45;97739.94;5040938;28;899;-82
2023/07/29 08:13:08;;;;;;;;;;;;;;;22.58;29.68;97738.38;5039835;28;786;-82
2023/07/29 08:15:34;;;;;;;;;;;;;;;22.60;29.70;97739.53;5040735;28;1236;-82
2023/07/29 08:18:00;;;;;;;;;;;;;;;22.73;29.45;97733.00;5023256;28;1997;-81
2023/07/29 08:20:25;;;;;;;;;;;;;;;22.70;29.45;97731.91;5019562;28;872;-82
2023/07/29 08:22:52;;;;;;;;;;;;;;;22.69;29.59;97730.31;5020238;28;968;-82
2023/07/29 08:25:18;;;;;;;;;;;;;;;22.22;30.37;97724.63;5003401;28;868;-82
2023/07/29 08:27:43;;;;;;;;;;;;;;;22.70;29.24;97726.22;5000090;28;997;-82
2023/07/29 08:30:09;;;;;;;;;;;;;;;22.48;29.98;97723.31;4983932;28;1289;-82
2023/07/29 08:32:34;;;;;;;;;;;;;;;22.86;29.14;97723.22;4984745;28;959;-82
2023/07/29 08:35:00;;;;;;;;;;;;;;;22.67;29.49;97715.00;4983453;28;866;-82
2023/07/29 08:37:26;;;;;;;;;;;;;;;22.79;29.25;97712.09;4984310;28;1902;-82
2023/07/29 08:39:53;;;;;;;;;;;;;;;22.85;29.13;97706.66;4963645;28;979;-82
2023/07/29 08:42:19;;;;;;;;;;;;;;;22.76;29.41;97704.53;4934111;29;871;-83
2023/07/29 08:44:44;;;;;;;;;;;;;;;22.65;29.61;97711.84;4928816;29;1393;-82
2023/07/29 08:47:10;;;;;;;;;;;;;;;22.73;29.57;97708.28;4961605;29;827;-82
2023/07/29 08:49:39;;;;;;;;;;;;;;;22.75;29.48;97700.13;4961259;29;946;-82
2023/07/29 08:52:05;;;;;;;;;;;;;;;22.80;29.28;97704.41;4960875;28;1213;-82
2023/07/29 08:54:31;;;;;;;;;;;;;;;22.58;29.68;97701.53;4941240;29;952;-82
2023/07/29 08:56:56;;;;;;;;;;;;;;;22.75;29.35;97697.28;4945131;29;1906;-82
2023/07/29 08:59:22;;;;;;;;;;;;;;;22.90;29.45;97691.91;4959497;28;1244;-82
2023/07/29 09:01:47;;;;;;;;;;;;;;;22.63;29.67;97686.75;4923742;29;1302;-82
2023/07/29 09:04:13;;;;;;;;;;;;;;;22.62;29.61;97691.63;4922487;29;961;-82
2023/07/29 09:06:39;;;;;;;;;;;;;;;22.74;29.29;97689.22;4923440;29;905;-82
2023/07/29 09:09:05;;;;;;;;;;;;;;;22.72;29.38;97684.00;4922982;29;804;-82
2023/07/29 09:11:30;;;;;;;;;;;;;;;22.78;29.60;97682.16;4953135;29;995;-82
2023/07/29 09:13:56;;;;;;;;;;;;;;;22.73;29.53;97676.28;4976337;28;960;-82
2023/07/29 09:16:22;;;;;;;;;;;;;;;22.67;29.68;97673.25;4977556;28;881;-82
2023/07/29 09:18:50;;;;;;;;;;;;;;;22.80;29.54;97682.50;4960168;28;1918;-82
2023/07/29 09:21:16;;;;;;;;;;;;;;;22.75;29.32;97679.47;4977323;28;828;-82
2023/07/29 09:23:42;;;;;;;;;;;;;;;22.83;29.51;97678.72;4975958;28;914;-82
2023/07/29 09:26:08;;;;;;;;;;;;;;;22.77;29.64;97677.75;4961546;29;962;-82
2023/07/29 09:28:34;;;;;;;;;;;;;;;22.90;29.39;97676.91;4964210;28;887;-82
2023/07/29 09:31:00;;;;;;;;;;;;;;;22.90;29.27;97674.06;4966310;28;857;-82
2023/07/29 09:33:26;;;;;;;;;;;;;;;22.72;29.52;97675.50;5012101;28;803;-82
2023/07/29 09:35:51;;;;;;;;;;;;;;;22.76;29.75;97667.66;5023866;28;753;-80
2023/07/29 09:38:17;;;;;;;;;;;;;;;23.10;28.99;97674.53;5038132;28;1902;-82
2023/07/29 09:40:44;;;;;;;;;;;;;;;22.80;29.67;97674.00;5019648;28;866;-82
2023/07/29 09:43:10;;;;;;;;;;;;;;;22.81;29.59;97672.72;5002844;28;1111;-82
2023/07/29 09:45:36;;;;;;;;;;;;;;;22.56;30.08;97665.13;5019554;28;902;-82
2023/07/29 09:48:02;;;;;;;;;;;;;;;22.72;29.92;97667.00;5019002;28;813;-82
2023/07/29 09:50:28;;;;;;;;;;;;;;;22.89;29.62;97664.78;4958276;29;1301;-82
2023/07/29 09:52:54;;;;;;;;;;;;;;;22.90;29.44;97666.38;4941891;29;1160;-83
2023/07/29 09:55:26;;;;;;;;;;;;;;;22.93;29.52;97665.44;4942114;29;1125;-81
2023/07/29 09:58:02;;;;;;;;;;;;;;;22.80;29.76;97659.81;4941547;29;1906;-82
2023/07/29 10:00:27;;;;;;;;;;;;;;;22.70;29.78;97652.50;4942456;29;859;-82
2023/07/29 10:02:53;;;;;;;;;;;;;;;22.69;29.90;97653.75;4942015;29;949;-82
2023/07/29 10:05:19;;;;;;;;;;;;;;;22.85;29.84;97656.38;4948316;29;872;-82
2023/07/29 10:07:45;;;;;;;;;;;;;;;22.74;29.85;97653.16;4964462;29;849;-82
2023/07/29 10:10:11;;;;;;;;;;;;;;;22.84;29.89;97651.94;4963972;28;815;-82
2023/07/29 10:12:36;;;;;;;;;;;;;;;22.54;30.30;97650.63;4984723;28;935;-82
2023/07/29 10:15:05;;;;;;;;;;;;;;;22.84;29.69;97651.16;4945794;29;1109;-82
2023/07/29 10:17:31;;;;;;;;;;;;;;;22.93;29.90;97656.94;4913220;29;1964;-83
2023/07/29 10:19:59;;;;;;;;;;;;;;;22.84;29.80;97646.25;4910698;29;823;-82
2023/07/29 10:22:26;;;;;;;;;;;;;;;23.08;29.26;97648.66;4981000;28;985;-83
2023/07/29 10:24:53;;;;;;;;;;;;;;;22.75;30.12;97643.38;4986586;28;779;-82
2023/07/29 10:27:19;;;;;;;;;;;;;;;22.56;30.31;97653.78;5004406;28;816;-82
2023/07/29 10:29:44;;;;;;;;;;;;;;;22.87;29.99;97655.91;5003129;28;885;-83
2023/07/29 10:32:10;;;;;;;;;;;;;;;22.63;29.62;97608.16;5003587;28;947;-82
2023/07/29 10:34:36;;;;;;;;;;;;;;;23.08;29.57;97654.34;4986947;28;1093;-82
2023/07/29 10:37:02;;;;;;;;;;;;;;;23.01;29.63;97654.63;4988390;28;1981;-82
2023/07/29 10:39:27;;;;;;;;;;;;;;;23.08;29.65;97654.34;4986466;28;1041;-83
2023/07/29 10:41:57;;;;;;;;;;;;;;;22.99;29.63;97651.44;5004071;28;752;-83
2023/07/29 10:44:45;;;;;;;;;;;;;;;23.22;29.61;97656.66;5003470;28;897;-82
2023/07/29 10:47:15;;;;;;;;;;;;;;;23.02;29.85;97644.84;5045158;28;835;-82
2023/07/29 10:49:41;;;;;;;;;;;;;;;22.90;29.92;97637.19;5044029;28;708;-82
2023/07/29 10:52:06;;;;;;;;;;;;;;;22.94;29.82;97638.63;5044057;28;1158;-82
2023/07/29 10:54:41;;;;;;;;;;;;;;;22.59;30.51;97637.91;5043066;28;862;-82
2023/07/29 10:57:06;;;;;;;;;;;;;;;22.75;30.38;97629.22;5043703;28;1895;-82
2023/07/29 10:59:33;;;;;;;;;;;;;;;23.04;29.78;97630.97;5043300;28;688;-82
2023/07/29 11:01:59;;;;;;;;;;;;;;;22.80;30.22;97639.97;5043714;28;809;-82
2023/07/29 11:04:26;;;;;;;;;;;;;;;22.86;29.98;97638.09;5042663;28;940;-83
2023/07/29 11:07:04;;;;;;;;;;;;;;;22.87;30.11;97638.88;5027766;28;1102;-82
2023/07/29 11:09:39;;;;;;;;;;;;;;;22.84;29.96;97640.59;5043835;28;762;-82
2023/07/29 11:12:28;;;;;;;;;;;;;;;22.80;30.06;97627.81;5026166;28;1213;-81
2023/07/29 11:14:54;;;;;;;;;;;;;;;22.82;30.12;97642.31;4982256;28;1123;-82
2023/07/29 11:17:19;;;;;;;;;;;;;;;23.06;29.79;97639.84;4983098;28;1981;-81
2023/07/29 11:19:45;;;;;;;;;;;;;;;22.82;30.28;97637.44;4982285;28;886;-81
2023/07/29 11:22:10;;;;;;;;;;;;;;;23.00;30.09;97633.16;4983425;28;1047;-80
2023/07/29 11:24:36;;;;;;;;;;;;;;;22.96;29.98;97641.81;4983293;28;794;-81
2023/07/29 11:27:01;;;;;;;;;;;;;;;22.90;30.01;97640.03;4945870;29;1089;-81
2023/07/29 11:29:27;;;;;;;;;;;;;;;23.08;29.89;97631.63;4944197;29;1225;-80
2023/07/29 11:31:52;;;;;;;;;;;;;;;23.15;29.77;97625.69;4945670;29;835;-81
2023/07/29 11:34:20;;;;;;;;;;;;;;;22.86;30.07;97626.75;4944000;29;1005;-81
2023/07/29 11:36:46;;;;;;;;;;;;;;;22.94;30.17;97629.34;4945964;29;949;-82
2023/07/29 11:39:11;;;;;;;;;;;;;;;22.99;29.89;97628.75;4944557;29;1972;-81
2023/07/29 11:41:37;;;;;;;;;;;;;;;22.73;30.50;97628.84;4945608;29;787;-81
2023/07/29 11:44:03;;;;;;;;;;;;;;;22.70;30.44;97617.66;4944050;29;935;-80
2023/07/29 11:46:28;;;;;;;;;;;;;;;23.25;29.51;97630.16;4945152;29;987;-81
2023/07/29 11:48:54;;;;;;;;;;;;;;;22.98;29.75;97621.50;4948616;29;988;-81
2023/07/29 11:51:20;;;;;;;;;;;;;;;23.02;29.91;97619.31;4959277;28;1071;-81
2023/07/29 11:53:45;;;;;;;;;;;;;;;23.16;29.47;97618.78;4962526;29;946;-81
2023/07/29 11:56:12;;;;;;;;;;;;;;;23.19;29.66;97620.66;4964715;29;1019;-81
2023/07/29 11:58:38;;;;;;;;;;;;;;;23.13;29.56;97614.00;4917971;29;1892;-81
2023/07/29 12:01:04;;;;;;;;;;;;;;;22.92;30.09;97615.63;4927161;29;967;-81
2023/07/29 12:03:29;;;;;;;;;;;;;;;23.10;29.80;97623.44;4924046;29;918;-81
2023/07/29 12:05:55;;;;;;;;;;;;;;;22.88;30.19;97623.47;4940485;29;833;-81
2023/07/29 12:08:20;;;;;;;;;;;;;;;23.17;29.50;97614.66;4943123;29;808;-81
2023/07/29 12:10:46;;;;;;;;;;;;;;;22.93;29.96;97613.56;4944558;29;1104;-82
2023/07/29 12:13:12;;;;;;;;;;;;;;;22.97;29.88;97615.03;4942792;29;825;-82
2023/07/29 12:15:38;;;;;;;;;;;;;;;22.80;30.30;97616.47;4944386;29;697;-82
2023/07/29 12:18:03;;;;;;;;;;;;;;;22.92;29.96;97612.00;4960588;28;1954;-81
2023/07/29 12:20:29;;;;;;;;;;;;;;;22.97;29.67;97614.25;4981904;28;1244;-82
2023/07/29 12:22:58;;;;;;;;;;;;;;;23.16;29.50;97607.41;4981631;28;908;-82
2023/07/29 12:25:24;;;;;;;;;;;;;;;23.19;29.22;97612.16;4981879;28;872;-82
2023/07/29 12:27:49;;;;;;;;;;;;;;;22.80;30.06;97622.16;4981388;28;1144;-82
2023/07/29 12:30:15;;;;;;;;;;;;;;;22.60;30.23;97614.75;4986227;28;799;-82
2023/07/29 12:32:45;;;;;;;;;;;;;;;22.76;30.15;97608.09;5022280;28;1155;-82
2023/07/29 12:35:10;;;;;;;;;;;;;;;22.88;29.76;97612.91;5020975;28;724;-82
2023/07/29 12:37:38;;;;;;;;;;;;;;;23.13;29.51;97616.84;5040184;28;1910;-82
2023/07/29 12:40:04;;;;;;;;;;;;;;;23.04;29.75;97619.63;5039016;28;826;-82
2023/07/29 12:42:29;;;;;;;;;;;;;;;22.98;29.55;97618.66;5024708;28;808;-82
2023/07/29 12:44:55;;;;;;;;;;;;;;;23.06;29.59;97622.81;5022918;28;818;-82
2023/07/29 12:47:21;;;;;;;;;;;;;;;22.77;29.77;97623.84;5024027;28;759;-82
2023/07/29 12:49:46;;;;;;;;;;;;;;;23.14;29.36;97624.09;5006271;28;994;-82
2023/07/29 12:52:12;;;;;;;;;;;;;;;22.71;30.06;97625.69;5057102;28;1191;-82
2023/07/29 12:54:40;;;;;;;;;;;;;;;22.93;29.70;97620.03;5026302;28;865;-82